Time;durP1;ratioP1;P1;durP2;ratioP2;P2;SDS_P1;SDS_P2;PMS_P1;PMS_P2;Temp;Humidity;BMP_temperature;BMP_pressure;BME280_temperature;BME280_humidity;BME280_pressure;Samples;Min_cycle;Max_cycle;Signal;HPM_P1;HPM_P2
2023/06/24 00:01:12;;;;;;;6.05;2.80;;;;;;;17.76;61.06;102579.50;6110348;19;20018;-71
2023/06/24 00:03:18;;;;;;;6.65;3.08;;;;;;;17.74;61.19;102584.88;6108921;19;20007;-70
2023/06/24 00:05:24;;;;;;;6.35;3.03;;;;;;;17.70;61.16;102577.97;6110763;19;20019;-70
2023/06/24 00:07:29;;;;;;;5.85;2.63;;;;;;;17.70;60.99;102575.31;6101811;19;20071;-71
2023/06/24 00:09:34;;;;;;;6.03;2.70;;;;;;;17.67;61.24;102577.25;6108805;19;20014;-71
2023/06/24 00:11:39;;;;;;;6.88;3.47;;;;;;;17.64;62.56;102585.34;6103673;19;20077;-71
2023/06/24 00:13:46;;;;;;;6.18;3.03;;;;;;;17.58;62.17;102580.28;6110744;19;20037;-71
2023/06/24 00:15:54;;;;;;;7.82;3.25;;;;;;;17.55;62.31;102594.56;6109459;19;20054;-70
2023/06/24 00:18:05;;;;;;;6.78;2.95;;;;;;;17.51;62.87;102588.53;6110956;19;20378;-70
2023/06/24 00:20:14;;;;;;;6.50;3.20;;;;;;;17.50;62.98;102586.78;6099282;19;20015;-70
2023/06/24 00:22:20;;;;;;;6.78;3.38;;;;;;;17.47;62.50;102594.03;6090470;19;20050;-71
2023/06/24 00:24:25;;;;;;;7.53;2.70;;;;;;;17.47;62.67;102592.22;6110199;19;20039;-71
2023/06/24 00:26:31;;;;;;;7.93;3.10;;;;;;;17.45;62.87;102590.56;6098933;19;20015;-71
2023/06/24 00:28:36;;;;;;;5.68;3.00;;;;;;;17.42;63.45;102593.34;6108321;19;20479;-72
2023/06/24 00:30:41;;;;;;;5.18;2.90;;;;;;;17.37;63.39;102596.19;6113809;19;20007;-70
2023/06/24 00:32:49;;;;;;;7.53;3.17;;;;;;;17.32;64.20;102598.16;6114123;19;20020;-72
2023/06/24 00:34:56;;;;;;;6.80;3.10;;;;;;;17.31;64.39;102593.78;6116566;19;20042;-71
2023/06/24 00:37:02;;;;;;;7.65;3.05;;;;;;;17.29;64.60;102598.31;6115773;19;20094;-71
2023/06/24 00:39:09;;;;;;;5.45;2.75;;;;;;;17.23;64.94;102594.09;6116399;19;20022;-70
2023/06/24 00:41:14;;;;;;;7.85;3.25;;;;;;;17.21;65.32;102595.09;6118551;19;20035;-70
2023/06/24 00:43:20;;;;;;;7.22;3.10;;;;;;;17.16;66.00;102589.09;6115897;19;20035;-70
2023/06/24 00:45:26;;;;;;;7.05;3.45;;;;;;;17.13;66.69;102591.88;6117107;19;20447;-72
2023/06/24 00:47:31;;;;;;;7.18;3.90;;;;;;;17.07;65.72;102593.00;6113794;19;20079;-70
2023/06/24 00:49:45;;;;;;;6.07;2.78;;;;;;;17.03;66.46;102588.72;6115135;19;20022;-71
2023/06/24 00:51:50;;;;;;;9.60;3.47;;;;;;;17.01;67.78;102588.78;6116794;19;20055;-70
2023/06/24 00:53:55;;;;;;;6.57;3.10;;;;;;;16.99;67.55;102582.69;6117539;19;20039;-72
2023/06/24 00:56:02;;;;;;;7.00;2.92;;;;;;;16.94;67.51;102581.13;6116796;19;20060;-72
2023/06/24 00:58:08;;;;;;;5.70;2.90;;;;;;;16.93;67.92;102584.69;6114651;19;20018;-70
2023/06/24 01:00:17;;;;;;;5.25;2.90;;;;;;;16.89;67.47;102582.16;6114210;19;20030;-70
2023/06/24 01:02:27;;;;;;;5.93;3.10;;;;;;;16.90;68.48;102588.34;6115763;19;20025;-70
2023/06/24 01:04:33;;;;;;;8.02;3.60;;;;;;;16.88;68.56;102583.09;6113558;19;20010;-71
2023/06/24 01:06:43;;;;;;;6.30;3.05;;;;;;;16.85;68.13;102579.69;6115299;19;20494;-72
2023/06/24 01:08:50;;;;;;;6.70;2.97;;;;;;;16.83;69.94;102576.25;6115599;19;20030;-70
2023/06/24 01:10:56;;;;;;;7.45;3.10;;;;;;;16.78;69.02;102580.88;6114531;19;20063;-70
2023/06/24 01:13:02;;;;;;;7.43;3.35;;;;;;;16.74;68.04;102580.06;6113813;19;20035;-71
2023/06/24 01:15:09;;;;;;;8.70;3.13;;;;;;;16.70;69.12;102583.78;6114839;19;19999;-74
2023/06/24 01:17:18;;;;;;;8.60;4.13;;;;;;;16.68;68.43;102585.63;6114678;19;20010;-76
2023/06/24 01:19:40;;;;;;;7.15;3.20;;;;;;;16.63;68.30;102576.97;6114085;19;20111;-74
2023/06/24 01:22:06;;;;;;;9.95;5.20;;;;;;;16.60;69.65;102566.47;6112311;19;20033;-74
2023/06/24 01:24:38;;;;;;;10.88;4.22;;;;;;;16.56;69.18;102570.16;6114861;19;20359;-74
2023/06/24 01:27:19;;;;;;;9.73;4.40;;;;;;;16.53;69.63;102564.97;6114860;19;20567;-74
2023/06/24 01:29:46;;;;;;;10.68;5.55;;;;;;;16.56;71.97;102559.53;6114239;19;20009;-75
2023/06/24 01:32:01;;;;;;;8.73;3.72;;;;;;;16.50;70.33;102562.44;6110312;19;20010;-74
2023/06/24 01:34:15;;;;;;;11.00;5.18;;;;;;;16.49;70.70;102564.22;6112744;19;20046;-70
2023/06/24 01:36:21;;;;;;;8.13;3.33;;;;;;;16.50;70.53;102560.66;6111934;19;20019;-68
2023/06/24 01:38:34;;;;;;;8.65;3.70;;;;;;;16.48;71.17;102556.31;6114290;19;20482;-71
2023/06/24 01:40:42;;;;;;;10.93;5.05;;;;;;;16.46;71.82;102559.03;6114866;19;20018;-70
2023/06/24 01:42:49;;;;;;;10.52;5.13;;;;;;;16.48;72.80;102559.81;6111655;19;20006;-71
2023/06/24 01:44:55;;;;;;;8.73;4.30;;;;;;;16.49;71.60;102561.56;6112711;19;20421;-70
2023/06/24 01:47:05;;;;;;;9.68;4.53;;;;;;;16.48;72.04;102549.22;6112679;19;20010;-71
2023/06/24 01:49:15;;;;;;;8.85;3.92;;;;;;;16.43;72.06;102554.72;6113862;19;20015;-70
2023/06/24 01:51:23;;;;;;;7.50;3.47;;;;;;;16.43;72.93;102556.50;6109336;19;20065;-75
2023/06/24 01:53:30;;;;;;;9.23;4.03;;;;;;;16.44;72.55;102561.75;6110308;19;20010;-73
2023/06/24 01:55:37;;;;;;;7.78;3.63;;;;;;;16.44;72.57;102567.06;6114520;19;20490;-74
2023/06/24 01:57:44;;;;;;;7.82;4.10;;;;;;;16.43;72.42;102564.47;6110085;19;20471;-75
2023/06/24 01:59:52;;;;;;;9.68;4.53;;;;;;;16.41;72.47;102567.16;6111804;19;20077;-70
2023/06/24 02:02:00;;;;;;;11.32;4.45;;;;;;;16.40;72.45;102561.91;6113703;19;20014;-70
2023/06/24 02:04:11;;;;;;;9.23;4.43;;;;;;;16.41;72.26;102561.00;6113692;19;20375;-70
2023/06/24 02:06:18;;;;;;;8.75;4.38;;;;;;;16.41;72.94;102555.69;6113777;19;20014;-71
2023/06/24 02:08:25;;;;;;;8.13;4.30;;;;;;;16.36;73.73;102552.34;6111390;19;20089;-71
2023/06/24 02:10:33;;;;;;;6.68;3.40;;;;;;;16.33;73.29;102558.63;6113964;19;20090;-76
2023/06/24 02:12:40;;;;;;;8.40;4.50;;;;;;;16.30;74.16;102552.56;6111501;19;20003;-75
2023/06/24 02:14:48;;;;;;;8.48;3.90;;;;;;;16.24;73.36;102558.97;6110376;19;20097;-74
2023/06/24 02:16:57;;;;;;;10.88;5.35;;;;;;;16.28;74.17;102549.13;6113518;19;20114;-74
2023/06/24 02:19:11;;;;;;;7.88;4.32;;;;;;;16.24;73.43;102559.84;6113132;19;20003;-75
2023/06/24 02:21:17;;;;;;;8.82;4.00;;;;;;;16.21;74.08;102554.63;6108342;19;20038;-74
2023/06/24 02:23:25;;;;;;;8.38;3.88;;;;;;;16.25;75.92;102552.75;6112611;19;20015;-74
2023/06/24 02:25:36;;;;;;;7.50;3.90;;;;;;;16.22;75.10;102553.72;6099923;19;20405;-75
2023/06/24 02:27:43;;;;;;;9.65;4.30;;;;;;;16.23;75.30;102546.63;6111824;19;20019;-75
2023/06/24 02:29:49;;;;;;;8.80;4.18;;;;;;;16.20;75.27;102544.97;6112125;19;21153;-74
2023/06/24 02:31:54;;;;;;;8.10;3.58;;;;;;;16.23;75.63;102542.19;6109949;19;20015;-74
2023/06/24 02:33:59;;;;;;;8.13;3.85;;;;;;;16.23;75.84;102539.53;6111035;19;20094;-76
2023/06/24 02:36:07;;;;;;;8.45;4.07;;;;;;;16.26;76.87;102549.16;6112879;19;20395;-74
2023/06/24 02:38:12;;;;;;;9.40;4.25;;;;;;;16.24;76.36;102537.75;6110795;19;20089;-75
2023/06/24 02:40:17;;;;;;;9.35;4.60;;;;;;;16.24;77.49;102538.63;6109300;19;20389;-75
2023/06/24 02:42:22;;;;;;;8.02;4.00;;;;;;;16.26;76.76;102535.03;6110640;19;20096;-74
2023/06/24 02:44:33;;;;;;;7.82;3.75;;;;;;;16.28;77.22;102535.84;6110781;19;20031;-75
2023/06/24 02:46:40;;;;;;;7.68;4.03;;;;;;;16.26;76.75;102532.38;6110242;19;20014;-75
2023/06/24 02:48:48;;;;;;;8.93;3.63;;;;;;;16.26;76.78;102535.03;6112264;19;20011;-75
2023/06/24 02:50:54;;;;;;;8.60;4.13;;;;;;;16.26;77.53;102529.75;6112269;19;20019;-70
2023/06/24 02:53:03;;;;;;;9.13;4.28;;;;;;;16.22;77.64;102524.56;6108977;19;20043;-70
2023/06/24 02:55:09;;;;;;;11.02;4.28;;;;;;;16.21;78.92;102538.72;6111668;19;20404;-70
2023/06/24 02:57:15;;;;;;;9.85;4.00;;;;;;;16.20;77.57;102528.19;6110770;19;20014;-70
2023/06/24 02:59:22;;;;;;;8.50;4.13;;;;;;;16.20;77.56;102536.13;6109666;19;20023;-70
2023/06/24 03:01:28;;;;;;;9.90;4.50;;;;;;;16.19;77.99;102527.31;6107653;19;20015;-70
2023/06/24 03:03:35;;;;;;;8.88;4.50;;;;;;;16.22;79.43;102542.25;6108683;19;20014;-72
2023/06/24 03:05:41;;;;;;;8.98;4.72;;;;;;;16.21;80.21;102536.06;6109501;19;20022;-70
2023/06/24 03:07:47;;;;;;;10.23;4.25;;;;;;;16.20;80.04;102537.00;6112063;19;20456;-69
2023/06/24 03:09:55;;;;;;;7.82;3.90;;;;;;;16.22;79.17;102529.00;6110081;19;20539;-69
2023/06/24 03:12:03;;;;;;;8.07;4.43;;;;;;;16.24;79.30;102524.47;6110943;19;20022;-70
2023/06/24 03:14:08;;;;;;;9.10;4.32;;;;;;;16.24;80.01;102532.44;6110097;19;20081;-70
2023/06/24 03:16:14;;;;;;;9.88;4.50;;;;;;;16.26;79.95;102533.25;6110067;19;20010;-72
2023/06/24 03:18:19;;;;;;;10.10;4.63;;;;;;;16.26;80.00;102535.91;6110340;19;20505;-71
2023/06/24 03:20:24;;;;;;;10.20;5.30;;;;;;;16.26;80.23;102532.38;6111122;19;20024;-71
2023/06/24 03:22:29;;;;;;;10.63;5.50;;;;;;;16.23;80.01;102534.22;6110273;19;20050;-71
2023/06/24 03:24:35;;;;;;;10.70;4.70;;;;;;;16.21;80.39;102540.50;6110300;19;20018;-70
2023/06/24 03:26:43;;;;;;;9.77;5.57;;;;;;;16.26;80.63;102540.34;6109637;19;20026;-71
2023/06/24 03:28:48;;;;;;;10.75;5.40;;;;;;;16.25;80.24;102534.19;6110384;19;20087;-70
2023/06/24 03:30:53;;;;;;;9.88;5.60;;;;;;;16.26;81.04;102537.69;6110918;19;20031;-70
2023/06/24 03:32:58;;;;;;;10.23;5.20;;;;;;;16.28;80.98;102536.72;6110302;19;20493;-70
2023/06/24 03:35:03;;;;;;;9.85;4.45;;;;;;;16.29;81.19;102532.28;6110803;19;20026;-70
2023/06/24 03:37:08;;;;;;;12.00;5.28;;;;;;;16.28;80.18;102534.06;6110493;19;20027;-70
2023/06/24 03:39:13;;;;;;;9.05;5.05;;;;;;;16.32;81.69;102524.19;6112714;19;20389;-71
2023/06/24 03:41:18;;;;;;;11.73;6.45;;;;;;;16.30;81.56;102532.22;6112130;19;20002;-71
2023/06/24 03:43:27;;;;;;;11.27;6.47;;;;;;;16.35;81.22;102526.72;6111198;19;20014;-72
2023/06/24 03:45:32;;;;;;;10.02;6.07;;;;;;;16.35;81.12;102529.38;6107194;19;20082;-71
2023/06/24 03:47:38;;;;;;;9.75;4.72;;;;;;;16.35;81.90;102532.03;6109992;19;20019;-71
2023/06/24 03:49:43;;;;;;;11.65;5.25;;;;;;;16.40;81.97;102538.91;6111644;19;20094;-71
2023/06/24 03:51:48;;;;;;;11.05;4.75;;;;;;;16.44;82.12;102540.50;6110828;19;20043;-70
2023/06/24 03:53:53;;;;;;;10.05;4.68;;;;;;;16.47;81.74;102544.84;6109361;19;20026;-69
2023/06/24 03:55:59;;;;;;;9.55;4.93;;;;;;;16.50;81.79;102542.06;6111989;19;20014;-72
2023/06/24 03:58:05;;;;;;;12.20;6.13;;;;;;;16.52;81.65;102536.72;6111741;19;20054;-70
2023/06/24 04:00:17;;;;;;;10.55;5.45;;;;;;;16.50;81.38;102547.38;6111050;19;20481;-71
2023/06/24 04:02:22;;;;;;;9.13;4.55;;;;;;;16.54;81.61;102535.72;6108990;19;20499;-70
2023/06/24 04:04:28;;;;;;;9.82;5.07;;;;;;;16.57;81.61;102540.91;6112504;19;20002;-70
2023/06/24 04:06:33;;;;;;;10.18;5.15;;;;;;;16.55;81.66;102537.44;6115143;19;20085;-70
2023/06/24 04:08:43;;;;;;;8.82;4.97;;;;;;;16.57;81.14;102545.38;6116374;19;20364;-72
2023/06/24 04:10:48;;;;;;;12.13;5.85;;;;;;;16.59;81.28;102547.03;6116328;19;20022;-70
2023/06/24 04:12:53;;;;;;;9.77;4.78;;;;;;;16.59;80.76;102547.03;6114764;19;20022;-72
2023/06/24 04:14:58;;;;;;;9.63;4.88;;;;;;;16.62;81.21;102544.25;6115423;19;20034;-72
2023/06/24 04:17:07;;;;;;;10.00;5.40;;;;;;;16.67;81.63;102542.28;6115553;19;20036;-70
2023/06/24 04:19:12;;;;;;;10.05;4.85;;;;;;;16.74;81.07;102544.69;6115668;19;20128;-70
2023/06/24 04:21:17;;;;;;;12.32;5.50;;;;;;;16.76;80.84;102543.72;6114933;19;20058;-70
2023/06/24 04:23:22;;;;;;;14.65;6.68;;;;;;;16.79;80.60;102551.59;6114356;19;20003;-71
2023/06/24 04:25:31;;;;;;;12.95;5.88;;;;;;;16.80;80.83;102545.38;6110992;19;20006;-71
2023/06/24 04:27:37;;;;;;;10.65;6.15;;;;;;;16.85;81.05;102551.38;6113523;19;20487;-71
2023/06/24 04:29:42;;;;;;;10.98;5.45;;;;;;;16.89;80.78;102550.28;6113946;19;20093;-71
2023/06/24 04:31:47;;;;;;;10.23;5.40;;;;;;;17.02;81.57;102553.34;6116519;19;20029;-72
2023/06/24 04:33:55;;;;;;;10.25;5.05;;;;;;;17.09;80.27;102552.16;6112547;19;20039;-71
2023/06/24 04:36:03;;;;;;;12.00;6.20;;;;;;;17.15;80.18;102556.34;6112338;19;20023;-70
2023/06/24 04:38:08;;;;;;;11.00;6.68;;;;;;;17.23;80.29;102564.88;6113177;19;20090;-70
2023/06/24 04:40:14;;;;;;;10.20;5.18;;;;;;;17.36;79.63;102557.28;6114096;19;20007;-71
2023/06/24 04:42:19;;;;;;;11.98;5.15;;;;;;;17.44;79.17;102554.28;6113391;19;20042;-71
2023/06/24 04:44:26;;;;;;;11.32;4.93;;;;;;;17.58;78.71;102564.34;6114290;19;20347;-70
2023/06/24 04:46:32;;;;;;;11.02;5.65;;;;;;;17.74;78.60;102555.63;6114570;19;20043;-71
2023/06/24 04:48:37;;;;;;;14.32;5.25;;;;;;;17.84;77.93;102558.78;6113715;19;20015;-72
2023/06/24 04:50:46;;;;;;;11.40;6.07;;;;;;;18.00;77.44;102558.97;6113796;19;20368;-76
2023/06/24 04:52:56;;;;;;;15.35;5.60;;;;;;;18.15;76.56;102557.44;6114212;19;20010;-75
2023/06/24 04:55:03;;;;;;;12.38;6.30;;;;;;;18.25;76.19;102556.09;6113880;19;20020;-74
2023/06/24 04:57:11;;;;;;;13.60;5.97;;;;;;;18.39;75.75;102558.97;6114121;19;20030;-75
2023/06/24 04:59:16;;;;;;;12.30;5.10;;;;;;;18.59;75.10;102562.53;6114513;19;20007;-74
2023/06/24 05:01:22;;;;;;;11.15;5.93;;;;;;;18.68;74.08;102561.22;6115070;19;20028;-75
2023/06/24 05:03:31;;;;;;;13.88;7.28;;;;;;;18.83;73.77;102566.72;6114668;19;20498;-74
2023/06/24 05:05:36;;;;;;;12.73;6.10;;;;;;;18.99;72.96;102565.97;6107140;19;20018;-76
2023/06/24 05:07:45;;;;;;;12.32;5.55;;;;;;;19.24;72.71;102557.63;6115932;19;20046;-75
2023/06/24 05:09:51;;;;;;;11.65;5.78;;;;;;;19.36;71.86;102562.34;6115096;19;20033;-74
2023/06/24 05:11:57;;;;;;;15.85;7.47;;;;;;;19.54;70.65;102565.91;6115306;19;20010;-75
2023/06/24 05:14:04;;;;;;;14.60;8.05;;;;;;;19.66;70.08;102567.97;6112242;19;20319;-75
2023/06/24 05:16:09;;;;;;;14.02;7.05;;;;;;;19.92;69.93;102569.28;6111923;19;20458;-75
2023/06/24 05:18:15;;;;;;;18.48;6.93;;;;;;;19.85;69.22;102564.34;6114873;19;20022;-75
2023/06/24 05:20:20;;;;;;;11.55;6.47;;;;;;;20.09;68.74;102570.19;6114207;19;20017;-74
2023/06/24 05:22:25;;;;;;;12.52;6.43;;;;;;;20.28;67.96;102554.06;6112916;19;20455;-72
2023/06/24 05:24:34;;;;;;;12.48;6.20;;;;;;;20.42;67.65;102556.84;6113285;19;20589;-70
2023/06/24 05:26:39;;;;;;;12.60;6.40;;;;;;;20.61;68.35;102562.91;6114138;19;20018;-72
2023/06/24 05:28:44;;;;;;;14.15;6.75;;;;;;;20.71;67.18;102557.06;6112966;19;20038;-72
2023/06/24 05:30:49;;;;;;;15.10;7.25;;;;;;;20.86;66.24;102561.56;6113792;19;20014;-71
2023/06/24 05:32:54;;;;;;;13.18;6.65;;;;;;;20.82;66.18;102566.19;6113899;19;20023;-72
2023/06/24 05:34:59;;;;;;;14.25;6.40;;;;;;;21.29;64.44;102566.22;6113212;19;20025;-72
2023/06/24 05:37:05;;;;;;;13.80;6.40;;;;;;;21.41;64.40;102574.44;6114195;19;20083;-74
2023/06/24 05:39:11;;;;;;;14.43;6.68;;;;;;;21.83;64.12;102577.31;6112349;19;20031;-75
2023/06/24 05:41:19;;;;;;;15.20;5.90;;;;;;;22.14;63.32;102581.63;6113492;19;20034;-75
2023/06/24 05:43:25;;;;;;;11.75;5.65;;;;;;;22.35;61.53;102576.78;6113451;19;20019;-74
2023/06/24 05:45:31;;;;;;;15.10;6.45;;;;;;;22.57;60.93;102587.03;6090624;19;20022;-74
2023/06/24 05:47:36;;;;;;;13.73;6.57;;;;;;;22.51;61.16;102584.72;6111607;19;20045;-75
2023/06/24 05:49:44;;;;;;;12.48;6.53;;;;;;;22.74;60.47;102584.13;6109976;19;20697;-72
2023/06/24 05:51:49;;;;;;;15.98;6.85;;;;;;;22.87;60.01;102586.00;6113809;19;20095;-72
2023/06/24 05:53:54;;;;;;;13.77;6.85;;;;;;;23.11;59.83;102588.94;6111868;19;20042;-71
2023/06/24 05:56:00;;;;;;;15.55;7.22;;;;;;;22.94;59.45;102579.31;6113566;19;20056;-71
2023/06/24 05:58:07;;;;;;;13.75;7.35;;;;;;;23.25;59.72;102582.66;6111568;19;20019;-73
2023/06/24 06:00:14;;;;;;;14.60;6.28;;;;;;;22.98;58.67;102579.00;6112692;19;20128;-72
2023/06/24 06:02:19;;;;;;;12.93;7.43;;;;;;;23.38;58.82;102578.19;6113134;19;20054;-71
2023/06/24 06:04:24;;;;;;;11.93;6.63;;;;;;;23.57;58.27;102585.88;6112411;19;20123;-71
2023/06/24 06:06:29;;;;;;;14.32;7.32;;;;;;;23.37;58.52;102584.53;6112265;19;20093;-71
2023/06/24 06:08:34;;;;;;;16.92;7.50;;;;;;;23.49;58.70;102586.38;6111490;19;20022;-71
2023/06/24 06:10:39;;;;;;;15.05;7.47;;;;;;;23.77;57.58;102587.22;6111964;19;20378;-71
2023/06/24 06:12:44;;;;;;;20.33;7.97;;;;;;;23.62;57.94;102586.41;6113429;19;20023;-71
2023/06/24 06:14:52;;;;;;;16.38;7.20;;;;;;;23.53;57.42;102590.56;6110678;19;20011;-71
2023/06/24 06:16:57;;;;;;;14.63;7.15;;;;;;;23.53;58.03;102587.88;6112192;19;20018;-71
2023/06/24 06:19:03;;;;;;;14.95;7.88;;;;;;;23.70;57.29;102593.91;6113275;19;20053;-71
2023/06/24 06:21:08;;;;;;;12.98;6.30;;;;;;;24.10;57.23;102587.56;6112359;19;20088;-71
2023/06/24 06:23:13;;;;;;;15.18;6.80;;;;;;;24.19;56.26;102593.25;6112689;19;20352;-71
2023/06/24 06:25:19;;;;;;;16.00;7.55;;;;;;;24.18;55.94;102586.16;6112709;19;20023;-74
2023/06/24 06:27:30;;;;;;;18.65;7.63;;;;;;;23.92;56.90;102583.47;6109637;19;20010;-71
2023/06/24 06:29:35;;;;;;;15.70;6.65;;;;;;;23.82;56.24;102579.69;6109881;19;20011;-70
2023/06/24 06:31:43;;;;;;;16.38;7.90;;;;;;;24.10;56.17;102587.56;6113249;19;20011;-71
2023/06/24 06:33:48;;;;;;;22.08;8.18;;;;;;;24.13;55.94;102581.09;6115122;19;20462;-72
2023/06/24 06:35:53;;;;;;;14.80;7.18;;;;;;;24.24;56.12;102581.19;6112039;19;20074;-72
2023/06/24 06:38:03;;;;;;;14.40;7.20;;;;;;;24.44;55.00;102578.94;6113803;19;20463;-75
2023/06/24 06:40:10;;;;;;;14.13;7.22;;;;;;;24.72;55.43;102591.25;6114710;19;20019;-74
2023/06/24 06:42:16;;;;;;;13.88;7.35;;;;;;;23.78;56.22;102583.56;6114520;19;20143;-71
2023/06/24 06:44:21;;;;;;;15.88;7.38;;;;;;;24.03;57.40;102586.25;6113980;19;20002;-72
2023/06/24 06:46:29;;;;;;;13.35;7.90;;;;;;;24.28;56.74;102589.91;6116143;19;20010;-75
2023/06/24 06:48:37;;;;;;;15.10;7.20;;;;;;;24.48;55.63;102580.44;6117204;19;20023;-73
2023/06/24 06:50:43;;;;;;;15.50;8.10;;;;;;;24.72;54.50;102588.56;6116846;19;20022;-74
2023/06/24 06:52:48;;;;;;;15.90;7.60;;;;;;;24.92;54.61;102579.88;6116915;19;20017;-74
2023/06/24 06:54:53;;;;;;;14.05;8.15;;;;;;;25.10;54.04;102584.88;6114695;19;20011;-71
2023/06/24 06:57:03;;;;;;;16.15;7.82;;;;;;;25.44;53.69;102585.91;6114614;19;20026;-70
2023/06/24 06:59:08;;;;;;;16.33;7.47;;;;;;;25.03;54.12;102589.00;6112738;19;20017;-71
2023/06/24 07:01:14;;;;;;;15.00;7.65;;;;;;;25.40;53.82;102590.66;6113216;19;20498;-71
2023/06/24 07:03:20;;;;;;;16.55;7.65;;;;;;;25.60;52.29;102581.06;6113962;19;20021;-75
2023/06/24 07:05:30;;;;;;;15.38;8.20;;;;;;;25.84;53.16;102591.81;6113687;19;20011;-75
2023/06/24 07:07:35;;;;;;;14.63;7.40;;;;;;;26.16;52.24;102584.88;6107890;19;20007;-74
2023/06/24 07:09:40;;;;;;;15.07;7.50;;;;;;;25.82;52.00;102585.63;6111588;19;20022;-72
2023/06/24 07:11:46;;;;;;;15.85;8.27;;;;;;;25.96;52.53;102592.69;6112820;19;20356;-72
2023/06/24 07:13:53;;;;;;;18.27;8.13;;;;;;;26.02;50.71;102592.22;6111108;19;20038;-74
2023/06/24 07:15:58;;;;;;;14.40;8.00;;;;;;;26.26;51.36;102592.09;6111679;19;20396;-76
2023/06/24 07:18:03;;;;;;;14.25;7.97;;;;;;;26.51;51.23;102592.81;6110541;19;20090;-74
2023/06/24 07:20:09;;;;;;;12.38;7.43;;;;;;;26.55;50.39;102591.63;6111634;19;20074;-74
2023/06/24 07:22:17;;;;;;;17.63;8.07;;;;;;;26.57;49.96;102586.97;6113523;19;19998;-74
2023/06/24 07:24:22;;;;;;;16.70;8.57;;;;;;;26.50;50.62;102593.81;6113009;19;20029;-74
2023/06/24 07:26:28;;;;;;;17.13;7.70;;;;;;;26.92;50.28;102588.63;6112006;19;20342;-75
2023/06/24 07:28:33;;;;;;;18.17;7.43;;;;;;;26.74;50.66;102584.75;6112205;19;20002;-75
2023/06/24 07:30:38;;;;;;;15.27;7.70;;;;;;;27.05;50.20;102575.81;6111445;19;20086;-74
2023/06/24 07:32:43;;;;;;;17.40;7.97;;;;;;;26.65;50.32;102584.50;6112534;19;20114;-74
2023/06/24 07:34:48;;;;;;;18.42;8.10;;;;;;;26.92;49.71;102585.94;6112286;19;20010;-74
2023/06/24 07:36:54;;;;;;;15.05;7.90;;;;;;;26.80;48.75;102593.16;6111606;19;20344;-75
2023/06/24 07:39:01;;;;;;;14.57;7.57;;;;;;;26.95;49.53;102591.06;6116130;19;20030;-73
2023/06/24 07:41:07;;;;;;;14.88;7.35;;;;;;;26.94;49.47;102592.06;6118453;19;20006;-76
2023/06/24 07:43:13;;;;;;;16.55;8.88;;;;;;;26.52;50.11;102589.19;6117487;19;20086;-73
2023/06/24 07:45:18;;;;;;;13.88;8.00;;;;;;;27.08;49.11;102582.81;6118489;19;20011;-74
2023/06/24 07:47:23;;;;;;;21.13;8.13;;;;;;;27.33;48.30;102596.00;6113831;19;20015;-75
2023/06/24 07:49:29;;;;;;;14.50;7.93;;;;;;;27.70;47.91;102587.47;6114407;19;20036;-74
2023/06/24 07:51:34;;;;;;;14.98;7.38;;;;;;;27.54;48.00;102597.84;6114592;19;20026;-74
2023/06/24 07:53:40;;;;;;;15.10;7.95;;;;;;;27.10;47.99;102589.78;6111413;19;20018;-74
2023/06/24 07:55:48;;;;;;;14.48;7.65;;;;;;;27.66;47.58;102595.94;6116701;19;20473;-70
2023/06/24 07:57:53;;;;;;;17.25;7.28;;;;;;;27.53;47.66;102590.75;6114587;19;20567;-70
2023/06/24 07:59:58;;;;;;;13.20;7.25;;;;;;;28.08;47.07;102588.69;6115718;19;20046;-71
2023/06/24 08:02:03;;;;;;;13.85;6.90;;;;;;;27.70;47.30;102587.47;6116747;19;20443;-71
2023/06/24 08:04:08;;;;;;;11.65;6.53;;;;;;;28.13;46.52;102586.44;6115655;19;20011;-71
2023/06/24 08:06:13;;;;;;;14.50;7.22;;;;;;;28.35;46.50;102588.09;6117173;19;20292;-72
2023/06/24 08:08:19;;;;;;;13.73;7.32;;;;;;;28.25;45.25;102592.59;6118220;19;20517;-70
2023/06/24 08:10:25;;;;;;;13.75;8.02;;;;;;;27.90;47.07;102587.59;6117297;19;20372;-71
2023/06/24 08:12:33;;;;;;;14.25;7.32;;;;;;;28.28;46.39;102589.66;6114839;19;20023;-72
2023/06/24 08:14:42;;;;;;;13.45;7.05;;;;;;;28.16;47.21;102586.19;6116963;19;20336;-72
2023/06/24 08:16:47;;;;;;;14.30;7.72;;;;;;;28.13;45.88;102580.19;6114090;19;20015;-71
2023/06/24 08:18:53;;;;;;;13.20;7.65;;;;;;;28.21;45.77;102583.06;6118104;19;20050;-72
2023/06/24 08:20:58;;;;;;;15.43;6.80;;;;;;;28.70;44.67;102576.03;6116598;19;20039;-75
2023/06/24 08:23:03;;;;;;;16.50;7.50;;;;;;;29.49;44.56;102572.34;6116846;19;20050;-74
2023/06/24 08:25:09;;;;;;;12.73;7.13;;;;;;;28.60;44.21;102578.69;6118035;19;20014;-75
2023/06/24 08:27:15;;;;;;;15.38;7.28;;;;;;;28.65;44.93;102587.25;6117503;19;20014;-74
2023/06/24 08:29:22;;;;;;;13.43;7.32;;;;;;;29.14;44.01;102581.94;6112668;19;20058;-73
2023/06/24 08:31:32;;;;;;;14.15;7.88;;;;;;;28.30;44.94;102584.94;6091772;19;20037;-74
2023/06/24 08:33:37;;;;;;;13.32;7.13;;;;;;;28.52;45.24;102583.09;6116512;19;20019;-75
2023/06/24 08:35:43;;;;;;;15.02;7.68;;;;;;;28.13;46.18;102577.50;6116605;19;20018;-74
2023/06/24 08:37:48;;;;;;;11.30;6.75;;;;;;;28.55;45.39;102575.53;6116598;19;20495;-75
2023/06/24 08:39:54;;;;;;;14.95;7.00;;;;;;;29.28;44.40;102586.94;6114873;19;20086;-75
2023/06/24 08:41:59;;;;;;;13.80;7.15;;;;;;;28.53;44.23;102585.63;6114875;19;20023;-75
2023/06/24 08:44:04;;;;;;;14.95;8.18;;;;;;;28.58;45.57;102579.81;6112627;19;20006;-74
2023/06/24 08:46:13;;;;;;;14.52;7.35;;;;;;;29.05;43.96;102586.34;6115671;19;20447;-74
2023/06/24 08:48:18;;;;;;;15.45;7.30;;;;;;;29.12;43.62;102575.78;6115031;19;20484;-74
2023/06/24 08:50:28;;;;;;;15.85;7.65;;;;;;;28.84;45.33;102581.03;6111671;19;20062;-75
2023/06/24 08:52:38;;;;;;;16.02;7.75;;;;;;;29.25;44.37;102570.09;6115452;19;20015;-73
2023/06/24 08:54:44;;;;;;;13.52;7.03;;;;;;;29.38;43.90;102569.81;6114781;19;20011;-75
2023/06/24 08:56:49;;;;;;;15.45;6.70;;;;;;;29.53;44.06;102568.38;6112859;19;20014;-75
2023/06/24 08:58:54;;;;;;;17.77;8.85;;;;;;;29.71;42.99;102572.06;6109131;19;20018;-76
2023/06/24 09:01:02;;;;;;;13.70;7.60;;;;;;;29.23;43.10;102577.53;6114297;19;20351;-76
2023/06/24 09:03:10;;;;;;;13.00;6.93;;;;;;;29.14;44.04;102573.81;6115520;19;20011;-75
2023/06/24 09:05:15;;;;;;;13.70;6.90;;;;;;;29.08;44.82;102574.38;6114927;19;20007;-75
2023/06/24 09:07:30;;;;;;;13.95;7.00;;;;;;;29.43;42.96;102572.94;6116624;19;20424;-71
2023/06/24 09:09:35;;;;;;;11.48;6.38;;;;;;;30.13;42.60;102571.66;6108080;19;20024;-72
2023/06/24 09:11:40;;;;;;;12.45;6.75;;;;;;;29.81;41.76;102571.22;6117257;19;20408;-71
2023/06/24 09:13:48;;;;;;;12.82;7.45;;;;;;;30.10;42.07;102571.97;6114897;19;20086;-72
2023/06/24 09:15:53;;;;;;;11.35;6.50;;;;;;;29.15;42.84;102575.53;6115200;19;20039;-75
2023/06/24 09:18:00;;;;;;;11.93;6.93;;;;;;;30.24;41.54;102577.94;6116019;19;20018;-75
2023/06/24 09:20:13;;;;;;;11.50;6.38;;;;;;;30.00;42.26;102576.56;6114972;19;20028;-70
2023/06/24 09:22:18;;;;;;;;;;;;;;;30.54;40.25;102572.19;6116731;19;20391;-71
2023/06/24 09:24:26;;;;;;;13.82;6.72;;;;;;;29.45;41.58;102577.22;6116515;19;19914;-75
2023/06/24 09:26:36;;;;;;;12.63;6.35;;;;;;;30.35;41.50;102572.31;6116240;19;20026;-75
2023/06/24 09:28:42;;;;;;;12.50;7.20;;;;;;;30.16;41.86;102565.94;6104439;19;20023;-75
2023/06/24 09:30:47;;;;;;;11.18;6.28;;;;;;;30.45;40.96;102567.69;6116245;19;20018;-76
2023/06/24 09:32:53;;;;;;;11.77;7.00;;;;;;;30.06;41.39;102569.69;6115995;19;20078;-75
2023/06/24 09:34:59;;;;;;;14.23;7.10;;;;;;;29.79;42.66;102570.50;6109715;19;20479;-75
2023/06/24 09:37:11;;;;;;;13.50;6.60;;;;;;;29.61;42.69;102564.94;6114486;19;20007;-75
2023/06/24 09:39:16;;;;;;;10.70;6.97;;;;;;;30.27;42.62;102566.78;6117152;19;20042;-76
2023/06/24 09:41:32;;;;;;;13.80;7.85;;;;;;;30.61;40.08;102570.59;6117175;19;20092;-75
2023/06/24 09:43:39;;;;;;;10.00;7.20;;;;;;;30.42;40.72;102575.28;6118047;19;20038;-77
2023/06/24 09:45:52;;;;;;;11.85;6.50;;;;;;;29.92;41.47;102566.47;6118307;19;20030;-75